createdAt,value
2018-11-14T00:03:15.583Z,22.77
2018-11-14T00:07:55.992Z,9.00
2018-11-14T00:12:36.316Z,75.07
2018-11-14T00:17:16.793Z,10.13
2018-11-14T00:21:56.714Z,11.97
2018-11-14T00:26:37.855Z,26.03
2018-11-14T00:31:18.409Z,18.67
2018-11-14T00:35:58.260Z,9.13
2018-11-14T00:40:40.735Z,7.47
2018-11-14T00:45:24.349Z,8.73
2018-11-14T00:50:04.759Z,9.47
2018-11-14T00:54:44.676Z,9.50
2018-11-14T00:59:24.417Z,9.30
2018-11-14T01:04:04.164Z,8.53
2018-11-14T01:08:48.930Z,8.30
2018-11-14T01:13:31.101Z,10.60
2018-11-14T01:18:12.357Z,10.57
2018-11-14T01:22:54.217Z,7.07
2018-11-14T01:27:34.097Z,9.00
2018-11-14T01:32:14.912Z,8.87
2018-11-14T01:36:57.232Z,8.70
2018-11-14T01:41:39.569Z,8.37
2018-11-14T01:46:20.181Z,9.40
2018-11-14T01:51:00.853Z,10.13
2018-11-14T01:55:40.590Z,11.80
2018-11-14T02:00:23.112Z,13.63
2018-11-14T02:05:04.089Z,23.13
2018-11-14T02:09:45.812Z,15.17
2018-11-14T02:14:26.725Z,21.77
2018-11-14T02:19:06.820Z,17.83
2018-11-14T02:23:46.491Z,16.93
2018-11-14T02:28:26.510Z,16.73
2018-11-14T02:33:06.597Z,13.73
2018-11-14T02:37:46.784Z,13.57
2018-11-14T02:42:26.713Z,12.73
2018-11-14T02:47:06.976Z,12.77
2018-11-14T02:51:47.443Z,13.67
2018-11-14T02:56:27.432Z,19.23
2018-11-14T03:01:07.772Z,13.17
2018-11-14T03:05:47.752Z,13.10
2018-11-14T03:10:27.543Z,13.67
2018-11-14T03:15:10.076Z,19.57
2018-11-14T03:19:50.926Z,19.47
2018-11-14T03:24:30.916Z,13.50
2018-11-14T03:29:11.575Z,11.83
2018-11-14T03:33:51.502Z,13.47
2018-11-14T03:38:31.816Z,11.40
2018-11-14T03:43:11.606Z,12.80
2018-11-14T03:47:52.583Z,12.70
2018-11-14T03:52:32.404Z,13.90
2018-11-14T03:57:12.712Z,12.83
2018-11-14T04:01:52.768Z,13.60
2018-11-14T04:06:33.893Z,13.67
2018-11-14T04:11:16.801Z,13.50
2018-11-14T04:15:56.585Z,13.10
2018-11-14T04:20:36.345Z,15.93
2018-11-14T04:25:17.955Z,12.63
2018-11-14T04:29:57.844Z,13.53
2018-11-14T04:34:37.880Z,16.30
2018-11-14T04:39:17.948Z,14.50
2018-11-14T04:43:57.976Z,15.67
2018-11-14T04:48:38.130Z,21.73
2018-11-14T04:53:19.012Z,17.17
2018-11-14T04:57:58.752Z,17.63
2018-11-14T05:02:38.968Z,17.17
2018-11-14T05:07:18.988Z,17.97
2018-11-14T05:11:59.672Z,18.47
2018-11-14T05:16:40.677Z,17.03
2018-11-14T05:21:20.626Z,17.60
2018-11-14T05:26:02.508Z,18.53
2018-11-14T05:30:43.997Z,18.83
2018-11-14T05:35:24.455Z,18.23
2018-11-14T05:40:06.230Z,19.90
2018-11-14T05:44:47.216Z,18.50
2018-11-14T05:49:33.557Z,20.63
2018-11-14T05:54:14.815Z,18.83
2018-11-14T05:58:55.661Z,19.87
2018-11-14T06:03:36.922Z,19.00
2018-11-14T06:08:16.974Z,17.87
2018-11-14T06:12:57.933Z,17.00
2018-11-14T06:17:39.241Z,15.73
2018-11-14T06:22:19.680Z,27.80
2018-11-14T06:27:00.965Z,18.37
2018-11-14T06:31:41.859Z,18.47
2018-11-14T06:36:22.864Z,19.60
2018-11-14T06:41:03.507Z,17.73
2018-11-14T06:45:43.616Z,18.13
2018-11-14T06:50:24.436Z,19.83
2018-11-14T06:55:05.439Z,18.87
2018-11-14T06:59:45.880Z,19.97
2018-11-14T07:04:26.465Z,19.07
2018-11-14T07:09:09.377Z,17.77
2018-11-14T07:13:49.232Z,18.13
2018-11-14T07:18:28.902Z,20.73
2018-11-14T07:23:09.000Z,21.47
2018-11-14T07:27:48.810Z,21.17
2018-11-14T07:32:35.248Z,21.30
2018-11-14T07:37:15.821Z,22.33
2018-11-14T07:41:56.479Z,22.23
2018-11-14T07:46:36.913Z,21.27
2018-11-14T07:51:17.188Z,22.17
2018-11-14T07:55:57.713Z,19.50
2018-11-14T08:00:38.432Z,21.40
2018-11-14T08:05:19.964Z,19.20
2018-11-14T08:09:59.904Z,19.17
2018-11-14T08:14:39.748Z,19.23
2018-11-14T08:19:19.653Z,19.40
2018-11-14T08:23:59.500Z,19.33
2018-11-14T08:28:40.204Z,18.73
2018-11-14T08:33:21.528Z,17.60
2018-11-14T08:38:01.965Z,17.97
2018-11-14T08:42:42.173Z,18.27
2018-11-14T08:47:23.088Z,20.80
2018-11-14T08:52:02.900Z,15.73
2018-11-14T08:56:42.915Z,11.27
2018-11-14T09:01:22.716Z,10.63
2018-11-14T09:06:03.594Z,10.37
2018-11-14T09:10:43.513Z,11.77
2018-11-14T09:15:24.761Z,11.50
2018-11-14T09:20:05.137Z,12.30
2018-11-14T09:24:45.077Z,10.70
2018-11-14T09:29:25.492Z,11.70
2018-11-14T09:34:06.125Z,10.40
2018-11-14T09:38:46.394Z,11.13
2018-11-14T09:43:26.201Z,10.37
2018-11-14T09:48:06.801Z,10.30
2018-11-14T09:52:47.964Z,10.13
2018-11-14T09:57:27.796Z,11.53
2018-11-14T10:02:07.890Z,12.10
2018-11-14T10:06:47.817Z,11.33
2018-11-14T10:11:28.753Z,13.17
2018-11-14T10:16:08.932Z,12.73
2018-11-14T10:20:49.030Z,13.88
2018-11-14T10:25:29.323Z,13.62
2018-11-14T10:30:12.520Z,13.90
2018-11-14T10:34:52.936Z,13.75
2018-11-14T10:39:32.756Z,15.60
2018-11-14T10:44:14.188Z,19.30
2018-11-14T10:48:54.127Z,21.00
2018-11-14T10:53:36.993Z,23.12
2018-11-14T10:58:20.668Z,20.62
2018-11-14T11:03:07.138Z,20.82
2018-11-14T11:07:53.920Z,21.25
2018-11-14T11:13:40.808Z,22.05
2018-11-14T11:18:28.908Z,16.85
2018-11-14T11:23:09.541Z,16.42
2018-11-14T11:27:52.559Z,17.35
2018-11-14T11:32:33.193Z,16.00
2018-11-14T11:37:17.570Z,16.85
2018-11-14T11:42:00.037Z,17.12
2018-11-14T11:46:43.944Z,17.73
2018-11-14T11:51:25.021Z,17.62
2018-11-14T11:56:06.393Z,15.88
2018-11-14T12:00:47.714Z,16.23
2018-11-14T12:05:29.236Z,15.25
2018-11-14T12:10:11.072Z,15.65
2018-11-14T12:14:51.443Z,15.50
2018-11-14T12:19:31.293Z,15.85
2018-11-14T12:24:11.051Z,14.93
2018-11-14T12:28:51.088Z,14.50
2018-11-14T12:33:31.245Z,14.87
2018-11-14T12:38:11.120Z,17.00
2018-11-14T12:42:51.597Z,15.90
2018-11-14T12:47:32.359Z,15.88
2018-11-14T12:52:12.786Z,15.23
2018-11-14T12:56:53.251Z,16.05
2018-11-14T13:01:37.065Z,16.87
2018-11-14T13:06:17.763Z,16.87
2018-11-14T13:10:58.444Z,18.77
2018-11-14T13:15:38.946Z,17.87
2018-11-14T13:20:21.527Z,16.17
2018-11-14T13:25:02.077Z,17.40
2018-11-14T13:29:42.107Z,15.65
2018-11-14T13:34:21.969Z,15.45
2018-11-14T13:39:02.026Z,17.42
2018-11-14T13:43:41.844Z,18.10
2018-11-14T13:48:23.538Z,16.02
2018-11-14T13:53:04.618Z,16.85
2018-11-14T13:57:45.597Z,19.35
2018-11-14T14:02:26.006Z,17.77
2018-11-14T14:07:06.252Z,16.75
2018-11-14T14:11:46.584Z,16.15
2018-11-14T14:16:27.248Z,15.60
2018-11-14T14:21:06.933Z,24.98
2018-11-14T14:25:46.816Z,45.75
2018-11-14T14:30:30.347Z,16.67
2018-11-14T14:35:11.161Z,19.87
2018-11-14T14:39:51.000Z,29.27
2018-11-14T14:44:30.861Z,36.77
2018-11-14T14:49:11.132Z,22.30
2018-11-14T14:53:51.378Z,34.18
2018-11-14T14:58:32.166Z,44.23
2018-11-14T15:03:12.496Z,35.83
2018-11-14T15:07:52.212Z,53.83
2018-11-14T15:12:32.013Z,143.07
2018-11-14T15:17:12.245Z,97.40
2018-11-14T15:21:51.948Z,44.38
2018-11-14T15:26:32.185Z,38.65
2018-11-14T15:31:12.161Z,78.33
2018-11-14T15:35:53.020Z,54.80
2018-11-14T15:40:32.760Z,25.32
2018-11-14T15:45:16.325Z,22.17
2018-11-14T15:49:56.688Z,15.30
2018-11-14T15:54:36.572Z,15.63
2018-11-14T15:59:16.493Z,12.43
2018-11-14T16:03:56.542Z,13.23
2018-11-14T16:08:36.655Z,14.87
2018-11-14T16:13:17.193Z,14.83
2018-11-14T16:17:57.247Z,19.83
2018-11-14T16:22:37.787Z,16.97
2018-11-14T16:27:17.689Z,16.23
2018-11-14T16:31:58.144Z,16.73
2018-11-14T16:36:38.173Z,17.07
2018-11-14T16:41:18.312Z,84.97
2018-11-14T16:45:58.748Z,44.60
2018-11-14T16:50:40.633Z,96.87
2018-11-14T16:55:21.959Z,19.37
2018-11-14T17:00:03.051Z,19.23
2018-11-14T17:04:43.459Z,52.33
2018-11-14T17:09:23.341Z,48.77
2018-11-14T17:14:03.192Z,54.20
2018-11-14T17:18:43.071Z,48.53
2018-11-14T17:23:24.193Z,66.23
2018-11-14T17:28:04.167Z,69.53
2018-11-14T17:32:44.801Z,61.07
2018-11-14T17:37:25.155Z,36.37
2018-11-14T17:42:05.610Z,57.83
2018-11-14T17:46:46.249Z,110.47
2018-11-14T17:51:26.777Z,68.17
2018-11-14T17:56:06.445Z,65.77
2018-11-14T18:00:46.766Z,36.83
2018-11-14T18:05:28.565Z,40.43
2018-11-14T18:10:10.236Z,33.13
2018-11-14T18:14:50.296Z,48.87
2018-11-14T18:19:30.170Z,31.03
2018-11-14T18:24:11.274Z,36.17
2018-11-14T18:28:51.212Z,42.57
2018-11-14T18:33:31.588Z,49.20
2018-11-14T18:38:11.783Z,34.43
2018-11-14T18:42:51.740Z,31.57
2018-11-14T18:47:33.139Z,22.60
2018-11-14T18:52:13.892Z,35.47
2018-11-14T18:56:55.365Z,28.70
2018-11-14T19:01:35.577Z,31.90
2018-11-14T19:06:15.480Z,27.13
2018-11-14T19:10:55.806Z,22.57
2018-11-14T19:15:37.035Z,25.03
2018-11-14T19:20:21.428Z,25.07
2018-11-14T19:25:01.954Z,14.87
2018-11-14T19:29:42.277Z,58.87
2018-11-14T19:34:22.425Z,28.53
2018-11-14T19:39:02.988Z,22.50
2018-11-14T19:43:42.982Z,19.53
2018-11-14T19:48:23.480Z,19.83
2018-11-14T19:53:04.221Z,22.07
2018-11-14T19:57:45.820Z,16.67
2018-11-14T20:02:25.893Z,18.23
2018-11-14T20:07:06.768Z,18.37
2018-11-14T20:11:47.780Z,17.10
2018-11-14T20:16:29.682Z,17.93
2018-11-14T20:21:10.951Z,16.90
2018-11-14T20:25:51.301Z,18.70
2018-11-14T20:30:34.586Z,16.23
2018-11-14T20:35:15.926Z,19.17
2018-11-14T20:39:55.938Z,16.57
2018-11-14T20:44:41.885Z,20.53
2018-11-14T20:49:23.001Z,23.00
2018-11-14T20:54:04.076Z,19.57
2018-11-14T20:58:44.589Z,26.80
2018-11-14T21:03:25.013Z,24.17
2018-11-14T21:08:06.155Z,21.50
2018-11-14T21:12:46.740Z,18.03
2018-11-14T21:17:27.879Z,19.53
2018-11-14T21:22:11.748Z,22.27
2018-11-14T21:26:53.747Z,24.93
2018-11-14T21:31:34.200Z,21.20
2018-11-14T21:36:14.493Z,20.77
2018-11-14T21:40:54.480Z,21.20
2018-11-14T21:45:36.657Z,22.60
2018-11-14T21:50:19.903Z,23.17
2018-11-14T21:55:01.359Z,24.97
2018-11-14T21:59:41.659Z,23.77
2018-11-14T22:04:22.447Z,23.03
2018-11-14T22:09:02.185Z,23.80
2018-11-14T22:13:42.075Z,20.80
2018-11-14T22:18:22.049Z,20.93
2018-11-14T22:23:03.356Z,19.47
2018-11-14T22:27:43.633Z,22.00
2018-11-14T22:32:25.729Z,20.23
2018-11-14T22:37:05.908Z,17.60
2018-11-14T22:41:46.271Z,17.67
2018-11-14T22:46:27.037Z,18.50
2018-11-14T22:51:07.413Z,18.03
2018-11-14T22:55:47.525Z,19.10
2018-11-14T23:00:30.105Z,20.10
2018-11-14T23:05:10.821Z,18.57
2018-11-14T23:09:51.668Z,19.53
2018-11-14T23:14:32.473Z,20.50
2018-11-14T23:19:13.655Z,19.80
2018-11-14T23:23:54.412Z,19.63
2018-11-14T23:28:35.346Z,20.07
2018-11-14T23:33:16.900Z,19.43
2018-11-14T23:37:58.839Z,18.87
2018-11-14T23:42:39.528Z,18.57
2018-11-14T23:47:19.497Z,17.33
2018-11-14T23:51:59.284Z,17.23
2018-11-14T23:56:39.934Z,17.30
